sensor_id;sensor_type;location;lat;lon;timestamp;P1;durP1;ratioP1;P2;durP2;ratioP2
66093;SDS011;52876;49.394;10.892;2023-03-04T00:01:44;25.30;;;18.07;;
66093;SDS011;52876;49.394;10.892;2023-03-04T00:04:12;33.07;;;21.33;;
66093;SDS011;52876;49.394;10.892;2023-03-04T00:06:40;23.37;;;16.50;;
66093;SDS011;52876;49.394;10.892;2023-03-04T00:09:07;24.30;;;12.77;;
66093;SDS011;52876;49.394;10.892;2023-03-04T00:11:35;17.93;;;12.13;;
66093;SDS011;52876;49.394;10.892;2023-03-04T00:14:04;25.85;;;16.90;;
66093;SDS011;52876;49.394;10.892;2023-03-04T00:16:31;30.80;;;19.43;;
66093;SDS011;52876;49.394;10.892;2023-03-04T00:18:59;20.87;;;13.20;;
66093;SDS011;52876;49.394;10.892;2023-03-04T00:21:26;24.60;;;16.57;;
66093;SDS011;52876;49.394;10.892;2023-03-04T00:23:55;24.80;;;16.23;;
66093;SDS011;52876;49.394;10.892;2023-03-04T00:26:22;23.37;;;16.47;;
66093;SDS011;52876;49.394;10.892;2023-03-04T00:28:50;23.13;;;15.13;;
66093;SDS011;52876;49.394;10.892;2023-03-04T00:31:19;19.50;;;15.00;;
66093;SDS011;52876;49.394;10.892;2023-03-04T00:33:47;18.23;;;12.30;;
66093;SDS011;52876;49.394;10.892;2023-03-04T00:36:14;19.37;;;14.60;;
66093;SDS011;52876;49.394;10.892;2023-03-04T00:38:42;24.33;;;16.10;;
66093;SDS011;52876;49.394;10.892;2023-03-04T00:41:09;19.40;;;13.40;;
66093;SDS011;52876;49.394;10.892;2023-03-04T00:43:37;19.63;;;12.68;;
66093;SDS011;52876;49.394;10.892;2023-03-04T00:46:04;21.42;;;14.32;;
66093;SDS011;52876;49.394;10.892;2023-03-04T00:48:33;20.65;;;14.60;;
66093;SDS011;52876;49.394;10.892;2023-03-04T00:51:01;23.85;;;15.43;;
66093;SDS011;52876;49.394;10.892;2023-03-04T00:53:28;19.55;;;13.73;;
66093;SDS011;52876;49.394;10.892;2023-03-04T00:55:56;17.23;;;12.43;;
66093;SDS011;52876;49.394;10.892;2023-03-04T00:58:24;22.65;;;14.77;;
66093;SDS011;52876;49.394;10.892;2023-03-04T01:00:51;16.02;;;11.52;;
66093;SDS011;52876;49.394;10.892;2023-03-04T01:03:19;23.48;;;17.80;;
66093;SDS011;52876;49.394;10.892;2023-03-04T01:05:48;20.98;;;13.27;;
66093;SDS011;52876;49.394;10.892;2023-03-04T01:08:16;19.10;;;11.68;;
66093;SDS011;52876;49.394;10.892;2023-03-04T01:10:43;18.10;;;11.65;;
66093;SDS011;52876;49.394;10.892;2023-03-04T01:13:11;18.20;;;11.95;;
66093;SDS011;52876;49.394;10.892;2023-03-04T01:15:38;20.30;;;14.13;;
66093;SDS011;52876;49.394;10.892;2023-03-04T01:18:06;19.52;;;12.90;;
66093;SDS011;52876;49.394;10.892;2023-03-04T01:20:33;23.52;;;14.80;;
66093;SDS011;52876;49.394;10.892;2023-03-04T01:23:02;40.22;;;18.98;;
66093;SDS011;52876;49.394;10.892;2023-03-04T01:25:30;84.68;;;27.10;;
66093;SDS011;52876;49.394;10.892;2023-03-04T01:27:58;47.95;;;18.67;;
66093;SDS011;52876;49.394;10.892;2023-03-04T01:30:25;101.53;;;28.85;;
66093;SDS011;52876;49.394;10.892;2023-03-04T01:32:53;27.85;;;15.07;;
66093;SDS011;52876;49.394;10.892;2023-03-04T01:35:20;30.88;;;16.13;;
66093;SDS011;52876;49.394;10.892;2023-03-04T01:37:48;50.40;;;18.55;;
66093;SDS011;52876;49.394;10.892;2023-03-04T01:40:17;37.08;;;15.98;;
66093;SDS011;52876;49.394;10.892;2023-03-04T01:42:45;32.97;;;14.73;;
66093;SDS011;52876;49.394;10.892;2023-03-04T01:45:13;20.58;;;13.80;;
66093;SDS011;52876;49.394;10.892;2023-03-04T01:47:41;22.88;;;13.50;;
66093;SDS011;52876;49.394;10.892;2023-03-04T01:50:12;17.58;;;11.27;;
66093;SDS011;52876;49.394;10.892;2023-03-04T01:52:42;19.17;;;13.57;;
66093;SDS011;52876;49.394;10.892;2023-03-04T01:55:13;17.85;;;11.27;;
66093;SDS011;52876;49.394;10.892;2023-03-04T01:57:42;18.35;;;12.93;;
66093;SDS011;52876;49.394;10.892;2023-03-04T02:00:14;16.00;;;11.55;;
66093;SDS011;52876;49.394;10.892;2023-03-04T02:02:44;18.15;;;11.95;;
66093;SDS011;52876;49.394;10.892;2023-03-04T02:05:11;15.43;;;10.80;;
66093;SDS011;52876;49.394;10.892;2023-03-04T02:07:40;16.23;;;12.15;;
66093;SDS011;52876;49.394;10.892;2023-03-04T02:10:08;14.48;;;10.50;;
66093;SDS011;52876;49.394;10.892;2023-03-04T02:12:36;18.02;;;11.80;;
66093;SDS011;52876;49.394;10.892;2023-03-04T02:15:06;16.20;;;11.30;;
66093;SDS011;52876;49.394;10.892;2023-03-04T02:17:34;17.25;;;12.68;;
66093;SDS011;52876;49.394;10.892;2023-03-04T02:20:03;18.77;;;12.18;;
66093;SDS011;52876;49.394;10.892;2023-03-04T02:22:34;19.17;;;12.98;;
66093;SDS011;52876;49.394;10.892;2023-03-04T02:25:04;15.45;;;11.30;;
66093;SDS011;52876;49.394;10.892;2023-03-04T02:27:35;14.45;;;10.82;;
66093;SDS011;52876;49.394;10.892;2023-03-04T02:30:03;13.20;;;10.63;;
66093;SDS011;52876;49.394;10.892;2023-03-04T02:32:31;15.20;;;10.63;;
66093;SDS011;52876;49.394;10.892;2023-03-04T02:34:58;15.07;;;10.35;;
66093;SDS011;52876;49.394;10.892;2023-03-04T02:37:26;17.35;;;11.93;;
66093;SDS011;52876;49.394;10.892;2023-03-04T02:39:53;13.77;;;10.73;;
66093;SDS011;52876;49.394;10.892;2023-03-04T02:42:21;20.38;;;12.00;;
66093;SDS011;52876;49.394;10.892;2023-03-04T02:44:58;20.45;;;14.27;;
66093;SDS011;52876;49.394;10.892;2023-03-04T02:47:26;16.10;;;10.30;;
66093;SDS011;52876;49.394;10.892;2023-03-04T02:49:53;19.25;;;13.80;;
66093;SDS011;52876;49.394;10.892;2023-03-04T02:52:22;16.90;;;11.85;;
66093;SDS011;52876;49.394;10.892;2023-03-04T02:54:49;19.75;;;13.40;;
66093;SDS011;52876;49.394;10.892;2023-03-04T02:57:17;19.15;;;12.50;;
66093;SDS011;52876;49.394;10.892;2023-03-04T02:59:45;21.48;;;14.50;;
66093;SDS011;52876;49.394;10.892;2023-03-04T03:02:14;21.05;;;13.68;;
66093;SDS011;52876;49.394;10.892;2023-03-04T03:04:41;18.27;;;11.93;;
66093;SDS011;52876;49.394;10.892;2023-03-04T03:07:09;24.70;;;14.95;;
66093;SDS011;52876;49.394;10.892;2023-03-04T03:09:36;38.08;;;18.95;;
66093;SDS011;52876;49.394;10.892;2023-03-04T03:12:04;35.15;;;16.50;;
66093;SDS011;52876;49.394;10.892;2023-03-04T03:14:32;30.25;;;17.20;;
66093;SDS011;52876;49.394;10.892;2023-03-04T03:16:59;29.88;;;15.38;;
66093;SDS011;52876;49.394;10.892;2023-03-04T03:19:28;28.17;;;14.90;;
66093;SDS011;52876;49.394;10.892;2023-03-04T03:21:56;32.20;;;18.20;;
66093;SDS011;52876;49.394;10.892;2023-03-04T03:24:24;31.63;;;16.73;;
66093;SDS011;52876;49.394;10.892;2023-03-04T03:26:51;35.65;;;17.70;;
66093;SDS011;52876;49.394;10.892;2023-03-04T03:29:19;30.92;;;16.77;;
66093;SDS011;52876;49.394;10.892;2023-03-04T03:31:46;27.75;;;16.50;;
66093;SDS011;52876;49.394;10.892;2023-03-04T03:34:14;36.53;;;17.98;;
66093;SDS011;52876;49.394;10.892;2023-03-04T03:36:43;46.47;;;21.40;;
66093;SDS011;52876;49.394;10.892;2023-03-04T03:39:11;30.13;;;16.85;;
66093;SDS011;52876;49.394;10.892;2023-03-04T03:41:38;41.35;;;20.60;;
66093;SDS011;52876;49.394;10.892;2023-03-04T03:44:06;37.63;;;19.08;;
66093;SDS011;52876;49.394;10.892;2023-03-04T03:46:33;38.83;;;20.23;;
66093;SDS011;52876;49.394;10.892;2023-03-04T03:49:01;35.05;;;19.30;;
66093;SDS011;52876;49.394;10.892;2023-03-04T03:51:29;34.40;;;19.83;;
66093;SDS011;52876;49.394;10.892;2023-03-04T03:53:58;32.67;;;18.10;;
66093;SDS011;52876;49.394;10.892;2023-03-04T03:56:25;29.13;;;17.05;;
66093;SDS011;52876;49.394;10.892;2023-03-04T03:58:53;30.85;;;17.60;;
66093;SDS011;52876;49.394;10.892;2023-03-04T04:01:20;28.83;;;17.40;;
66093;SDS011;52876;49.394;10.892;2023-03-04T04:03:48;30.85;;;17.50;;
66093;SDS011;52876;49.394;10.892;2023-03-04T04:06:16;33.45;;;19.70;;
66093;SDS011;52876;49.394;10.892;2023-03-04T04:08:43;37.25;;;19.67;;
66093;SDS011;52876;49.394;10.892;2023-03-04T04:11:12;32.35;;;18.92;;
66093;SDS011;52876;49.394;10.892;2023-03-04T04:13:40;38.30;;;21.55;;
66093;SDS011;52876;49.394;10.892;2023-03-04T04:16:08;35.53;;;21.33;;
66093;SDS011;52876;49.394;10.892;2023-03-04T04:18:36;35.25;;;19.67;;
66093;SDS011;52876;49.394;10.892;2023-03-04T04:21:04;30.35;;;17.80;;
66093;SDS011;52876;49.394;10.892;2023-03-04T04:23:32;29.25;;;17.23;;
66093;SDS011;52876;49.394;10.892;2023-03-04T04:25:59;31.17;;;18.45;;
66093;SDS011;52876;49.394;10.892;2023-03-04T04:28:29;30.83;;;17.98;;
66093;SDS011;52876;49.394;10.892;2023-03-04T04:30:56;30.60;;;17.20;;
66093;SDS011;52876;49.394;10.892;2023-03-04T04:33:24;34.78;;;19.70;;
66093;SDS011;52876;49.394;10.892;2023-03-04T04:35:52;31.25;;;18.17;;
66093;SDS011;52876;49.394;10.892;2023-03-04T04:38:19;36.25;;;20.38;;
66093;SDS011;52876;49.394;10.892;2023-03-04T04:40:47;35.45;;;19.13;;
66093;SDS011;52876;49.394;10.892;2023-03-04T04:43:14;36.90;;;18.35;;
66093;SDS011;52876;49.394;10.892;2023-03-04T04:45:43;43.50;;;23.70;;
66093;SDS011;52876;49.394;10.892;2023-03-04T04:48:11;34.63;;;19.30;;
66093;SDS011;52876;49.394;10.892;2023-03-04T04:50:39;38.42;;;20.98;;
66093;SDS011;52876;49.394;10.892;2023-03-04T04:53:06;33.33;;;17.90;;
66093;SDS011;52876;49.394;10.892;2023-03-04T04:55:34;35.60;;;19.27;;
66093;SDS011;52876;49.394;10.892;2023-03-04T04:58:01;38.33;;;20.55;;
66093;SDS011;52876;49.394;10.892;2023-03-04T05:00:31;37.88;;;21.73;;
66093;SDS011;52876;49.394;10.892;2023-03-04T05:03:00;47.55;;;24.63;;
66093;SDS011;52876;49.394;10.892;2023-03-04T05:05:28;45.38;;;22.17;;
66093;SDS011;52876;49.394;10.892;2023-03-04T05:07:55;37.35;;;21.00;;
66093;SDS011;52876;49.394;10.892;2023-03-04T05:10:23;49.65;;;23.05;;
66093;SDS011;52876;49.394;10.892;2023-03-04T05:12:50;42.05;;;21.67;;
66093;SDS011;52876;49.394;10.892;2023-03-04T05:15:18;43.53;;;21.67;;
66093;SDS011;52876;49.394;10.892;2023-03-04T05:17:46;47.80;;;23.50;;
66093;SDS011;52876;49.394;10.892;2023-03-04T05:20:15;40.50;;;20.05;;
66093;SDS011;52876;49.394;10.892;2023-03-04T05:22:42;47.67;;;23.50;;
66093;SDS011;52876;49.394;10.892;2023-03-04T05:25:10;32.00;;;18.90;;
66093;SDS011;52876;49.394;10.892;2023-03-04T05:27:37;40.58;;;22.83;;
66093;SDS011;52876;49.394;10.892;2023-03-04T05:30:05;42.35;;;21.98;;
66093;SDS011;52876;49.394;10.892;2023-03-04T05:32:33;55.45;;;26.17;;
66093;SDS011;52876;49.394;10.892;2023-03-04T05:35:01;42.13;;;22.05;;
66093;SDS011;52876;49.394;10.892;2023-03-04T05:37:30;55.95;;;25.67;;
66093;SDS011;52876;49.394;10.892;2023-03-04T05:39:57;43.13;;;23.30;;
66093;SDS011;52876;49.394;10.892;2023-03-04T05:42:25;41.95;;;22.70;;
66093;SDS011;52876;49.394;10.892;2023-03-04T05:44:53;41.67;;;23.02;;
66093;SDS011;52876;49.394;10.892;2023-03-04T05:47:20;51.63;;;24.42;;
66093;SDS011;52876;49.394;10.892;2023-03-04T05:49:48;46.70;;;24.70;;
66093;SDS011;52876;49.394;10.892;2023-03-04T05:52:16;45.63;;;22.38;;
66093;SDS011;52876;49.394;10.892;2023-03-04T05:54:45;52.97;;;26.02;;
66093;SDS011;52876;49.394;10.892;2023-03-04T05:57:12;45.85;;;23.00;;
66093;SDS011;52876;49.394;10.892;2023-03-04T05:59:40;64.55;;;29.25;;
66093;SDS011;52876;49.394;10.892;2023-03-04T06:02:07;46.85;;;23.15;;
66093;SDS011;52876;49.394;10.892;2023-03-04T06:04:35;61.03;;;28.00;;
66093;SDS011;52876;49.394;10.892;2023-03-04T06:07:03;43.33;;;23.40;;
66093;SDS011;52876;49.394;10.892;2023-03-04T06:09:31;56.22;;;26.67;;
66093;SDS011;52876;49.394;10.892;2023-03-04T06:12:00;50.88;;;24.60;;
66093;SDS011;52876;49.394;10.892;2023-03-04T06:14:28;50.97;;;25.50;;
66093;SDS011;52876;49.394;10.892;2023-03-04T06:16:56;47.67;;;23.25;;
66093;SDS011;52876;49.394;10.892;2023-03-04T06:19:23;48.08;;;23.30;;
66093;SDS011;52876;49.394;10.892;2023-03-04T06:21:51;54.38;;;26.13;;
66093;SDS011;52876;49.394;10.892;2023-03-04T06:24:18;53.95;;;23.45;;
66093;SDS011;52876;49.394;10.892;2023-03-04T06:26:46;62.67;;;29.20;;
66093;SDS011;52876;49.394;10.892;2023-03-04T06:29:15;57.65;;;25.35;;
66093;SDS011;52876;49.394;10.892;2023-03-04T06:31:43;57.67;;;27.23;;
66093;SDS011;52876;49.394;10.892;2023-03-04T06:34:10;54.17;;;25.55;;
66093;SDS011;52876;49.394;10.892;2023-03-04T06:36:38;52.35;;;25.63;;
66093;SDS011;52876;49.394;10.892;2023-03-04T06:39:05;57.08;;;27.23;;
66093;SDS011;52876;49.394;10.892;2023-03-04T06:41:33;52.63;;;23.45;;
66093;SDS011;52876;49.394;10.892;2023-03-04T06:44:01;52.85;;;24.88;;
66093;SDS011;52876;49.394;10.892;2023-03-04T06:46:30;42.80;;;20.20;;
66093;SDS011;52876;49.394;10.892;2023-03-04T06:48:59;50.05;;;23.80;;
66093;SDS011;52876;49.394;10.892;2023-03-04T06:51:26;43.38;;;22.00;;
66093;SDS011;52876;49.394;10.892;2023-03-04T06:53:54;59.28;;;26.85;;
66093;SDS011;52876;49.394;10.892;2023-03-04T06:56:22;54.22;;;24.40;;
66093;SDS011;52876;49.394;10.892;2023-03-04T06:58:49;76.45;;;30.02;;
66093;SDS011;52876;49.394;10.892;2023-03-04T07:01:18;59.35;;;25.20;;
66093;SDS011;52876;49.394;10.892;2023-03-04T07:03:47;60.72;;;27.75;;
66093;SDS011;52876;49.394;10.892;2023-03-04T07:06:16;42.28;;;21.20;;
66093;SDS011;52876;49.394;10.892;2023-03-04T07:08:44;48.60;;;25.05;;
66093;SDS011;52876;49.394;10.892;2023-03-04T07:11:12;49.65;;;24.45;;
66093;SDS011;52876;49.394;10.892;2023-03-04T07:13:40;47.00;;;23.95;;
66093;SDS011;52876;49.394;10.892;2023-03-04T07:16:08;49.22;;;25.17;;
66093;SDS011;52876;49.394;10.892;2023-03-04T07:18:36;63.78;;;32.78;;
66093;SDS011;52876;49.394;10.892;2023-03-04T07:21:06;60.63;;;32.00;;
66093;SDS011;52876;49.394;10.892;2023-03-04T07:23:33;51.25;;;28.92;;
66093;SDS011;52876;49.394;10.892;2023-03-04T07:26:01;53.85;;;25.38;;
66093;SDS011;52876;49.394;10.892;2023-03-04T07:28:29;72.75;;;27.65;;
66093;SDS011;52876;49.394;10.892;2023-03-04T07:30:56;72.05;;;29.23;;
66093;SDS011;52876;49.394;10.892;2023-03-04T07:33:24;47.83;;;22.88;;
66093;SDS011;52876;49.394;10.892;2023-03-04T07:35:57;114.55;;;34.88;;
66093;SDS011;52876;49.394;10.892;2023-03-04T07:38:26;53.53;;;24.05;;
66093;SDS011;52876;49.394;10.892;2023-03-04T07:40:54;95.55;;;31.58;;
66093;SDS011;52876;49.394;10.892;2023-03-04T07:43:21;49.22;;;21.33;;
66093;SDS011;52876;49.394;10.892;2023-03-04T07:45:49;133.07;;;39.35;;
66093;SDS011;52876;49.394;10.892;2023-03-04T07:48:17;42.78;;;23.30;;
66093;SDS011;52876;49.394;10.892;2023-03-04T07:50:44;41.60;;;22.98;;
66093;SDS011;52876;49.394;10.892;2023-03-04T07:53:10;40.78;;;21.90;;
66093;SDS011;52876;49.394;10.892;2023-03-04T07:55:39;40.78;;;21.77;;
66093;SDS011;52876;49.394;10.892;2023-03-04T07:58:06;43.17;;;23.25;;
66093;SDS011;52876;49.394;10.892;2023-03-04T08:00:32;41.97;;;23.50;;
66093;SDS011;52876;49.394;10.892;2023-03-04T08:02:58;48.58;;;24.85;;
66093;SDS011;52876;49.394;10.892;2023-03-04T08:05:24;37.70;;;21.42;;
66093;SDS011;52876;49.394;10.892;2023-03-04T08:07:50;44.70;;;24.97;;
66093;SDS011;52876;49.394;10.892;2023-03-04T08:10:16;36.20;;;20.85;;
66093;SDS011;52876;49.394;10.892;2023-03-04T08:12:45;39.05;;;21.48;;
66093;SDS011;52876;49.394;10.892;2023-03-04T08:15:11;32.20;;;19.93;;
66093;SDS011;52876;49.394;10.892;2023-03-04T08:17:39;36.57;;;20.97;;
66093;SDS011;52876;49.394;10.892;2023-03-04T08:20:05;38.30;;;22.42;;
66093;SDS011;52876;49.394;10.892;2023-03-04T08:22:33;30.52;;;19.42;;
66093;SDS011;52876;49.394;10.892;2023-03-04T08:24:59;38.78;;;21.60;;
66093;SDS011;52876;49.394;10.892;2023-03-04T08:27:26;31.48;;;19.08;;
66093;SDS011;52876;49.394;10.892;2023-03-04T08:29:54;36.43;;;21.90;;
66093;SDS011;52876;49.394;10.892;2023-03-04T08:32:20;31.83;;;19.92;;
66093;SDS011;52876;49.394;10.892;2023-03-04T08:34:46;37.70;;;22.02;;
66093;SDS011;52876;49.394;10.892;2023-03-04T08:37:12;33.87;;;21.03;;
66093;SDS011;52876;49.394;10.892;2023-03-04T08:39:38;36.63;;;23.10;;
66093;SDS011;52876;49.394;10.892;2023-03-04T08:42:04;35.80;;;21.70;;
66093;SDS011;52876;49.394;10.892;2023-03-04T08:44:30;31.37;;;19.03;;
66093;SDS011;52876;49.394;10.892;2023-03-04T08:46:59;37.10;;;20.80;;
66093;SDS011;52876;49.394;10.892;2023-03-04T08:49:25;31.20;;;19.40;;
66093;SDS011;52876;49.394;10.892;2023-03-04T08:51:53;43.13;;;23.93;;
66093;SDS011;52876;49.394;10.892;2023-03-04T08:54:19;33.83;;;19.00;;
66093;SDS011;52876;49.394;10.892;2023-03-04T08:56:46;40.40;;;22.47;;
66093;SDS011;52876;49.394;10.892;2023-03-04T08:59:12;39.00;;;22.73;;
66093;SDS011;52876;49.394;10.892;2023-03-04T09:01:40;31.20;;;19.13;;
66093;SDS011;52876;49.394;10.892;2023-03-04T09:04:08;35.67;;;21.63;;
66093;SDS011;52876;49.394;10.892;2023-03-04T09:06:34;27.07;;;17.30;;
66093;SDS011;52876;49.394;10.892;2023-03-04T09:09:01;36.20;;;20.87;;
66093;SDS011;52876;49.394;10.892;2023-03-04T09:11:27;34.20;;;19.90;;
66093;SDS011;52876;49.394;10.892;2023-03-04T09:13:53;41.23;;;22.90;;
66093;SDS011;52876;49.394;10.892;2023-03-04T09:16:20;38.23;;;21.00;;
66093;SDS011;52876;49.394;10.892;2023-03-04T09:18:46;39.30;;;21.20;;
66093;SDS011;52876;49.394;10.892;2023-03-04T09:21:14;40.70;;;22.13;;
66093;SDS011;52876;49.394;10.892;2023-03-04T09:23:40;30.87;;;20.00;;
66093;SDS011;52876;49.394;10.892;2023-03-04T09:26:18;37.13;;;21.00;;
66093;SDS011;52876;49.394;10.892;2023-03-04T09:28:48;41.20;;;21.70;;
66093;SDS011;52876;49.394;10.892;2023-03-04T09:31:14;51.50;;;25.67;;
66093;SDS011;52876;49.394;10.892;2023-03-04T09:33:40;36.27;;;21.37;;
66093;SDS011;52876;49.394;10.892;2023-03-04T09:36:08;45.70;;;24.07;;
66093;SDS011;52876;49.394;10.892;2023-03-04T09:38:36;49.80;;;24.73;;
66093;SDS011;52876;49.394;10.892;2023-03-04T09:41:03;43.10;;;22.20;;
66093;SDS011;52876;49.394;10.892;2023-03-04T09:43:30;32.80;;;20.33;;
66093;SDS011;52876;49.394;10.892;2023-03-04T09:46:00;42.30;;;22.83;;
66093;SDS011;52876;49.394;10.892;2023-03-04T09:48:29;35.30;;;20.27;;
66093;SDS011;52876;49.394;10.892;2023-03-04T09:51:04;44.77;;;22.63;;
66093;SDS011;52876;49.394;10.892;2023-03-04T09:53:33;36.77;;;20.57;;
66093;SDS011;52876;49.394;10.892;2023-03-04T09:56:04;51.23;;;23.10;;
66093;SDS011;52876;49.394;10.892;2023-03-04T09:58:34;37.70;;;20.03;;
66093;SDS011;52876;49.394;10.892;2023-03-04T10:01:06;47.53;;;24.10;;
66093;SDS011;52876;49.394;10.892;2023-03-04T10:03:38;32.10;;;19.47;;
66093;SDS011;52876;49.394;10.892;2023-03-04T10:06:07;49.00;;;23.80;;
66093;SDS011;52876;49.394;10.892;2023-03-04T10:08:37;31.73;;;18.50;;
66093;SDS011;52876;49.394;10.892;2023-03-04T10:11:10;46.80;;;24.10;;
66093;SDS011;52876;49.394;10.892;2023-03-04T10:13:39;32.93;;;18.63;;
66093;SDS011;52876;49.394;10.892;2023-03-04T10:16:10;27.83;;;18.10;;
66093;SDS011;52876;49.394;10.892;2023-03-04T10:18:38;28.77;;;18.03;;
66093;SDS011;52876;49.394;10.892;2023-03-04T10:21:07;41.43;;;21.77;;
66093;SDS011;52876;49.394;10.892;2023-03-04T10:23:36;31.13;;;19.63;;
66093;SDS011;52876;49.394;10.892;2023-03-04T10:26:11;40.30;;;22.70;;
66093;SDS011;52876;49.394;10.892;2023-03-04T10:28:37;26.73;;;17.57;;
66093;SDS011;52876;49.394;10.892;2023-03-04T10:31:08;44.90;;;24.10;;
66093;SDS011;52876;49.394;10.892;2023-03-04T10:33:35;38.13;;;21.63;;
66093;SDS011;52876;49.394;10.892;2023-03-04T10:36:04;39.90;;;22.07;;
66093;SDS011;52876;49.394;10.892;2023-03-04T10:38:31;40.87;;;20.80;;
66093;SDS011;52876;49.394;10.892;2023-03-04T10:40:58;28.77;;;19.10;;
66093;SDS011;52876;49.394;10.892;2023-03-04T10:43:25;34.20;;;20.70;;
66093;SDS011;52876;49.394;10.892;2023-03-04T10:45:53;34.53;;;21.33;;
66093;SDS011;52876;49.394;10.892;2023-03-04T10:48:21;36.23;;;22.10;;
66093;SDS011;52876;49.394;10.892;2023-03-04T10:50:47;36.13;;;21.43;;
66093;SDS011;52876;49.394;10.892;2023-03-04T10:53:24;35.30;;;21.70;;
66093;SDS011;52876;49.394;10.892;2023-03-04T10:55:54;40.53;;;21.90;;
66093;SDS011;52876;49.394;10.892;2023-03-04T10:58:20;32.20;;;20.30;;
66093;SDS011;52876;49.394;10.892;2023-03-04T11:00:52;30.60;;;20.20;;
66093;SDS011;52876;49.394;10.892;2023-03-04T11:03:27;35.00;;;21.73;;
66093;SDS011;52876;49.394;10.892;2023-03-04T11:06:03;37.20;;;21.23;;
66093;SDS011;52876;49.394;10.892;2023-03-04T11:08:29;30.63;;;20.70;;
66093;SDS011;52876;49.394;10.892;2023-03-04T11:10:57;29.50;;;20.00;;
66093;SDS011;52876;49.394;10.892;2023-03-04T11:13:24;31.47;;;21.17;;
66093;SDS011;52876;49.394;10.892;2023-03-04T11:15:52;29.77;;;19.57;;
66093;SDS011;52876;49.394;10.892;2023-03-04T11:18:19;30.87;;;20.23;;
66093;SDS011;52876;49.394;10.892;2023-03-04T11:20:48;35.73;;;22.43;;
66093;SDS011;52876;49.394;10.892;2023-03-04T11:23:16;33.10;;;20.80;;
66093;SDS011;52876;49.394;10.892;2023-03-04T11:25:46;40.43;;;22.40;;
66093;SDS011;52876;49.394;10.892;2023-03-04T11:28:15;26.40;;;18.47;;
66093;SDS011;52876;49.394;10.892;2023-03-04T11:30:45;41.20;;;22.83;;
66093;SDS011;52876;49.394;10.892;2023-03-04T11:33:18;38.47;;;22.50;;
66093;SDS011;52876;49.394;10.892;2023-03-04T11:35:52;36.43;;;21.30;;
66093;SDS011;52876;49.394;10.892;2023-03-04T11:38:20;33.50;;;21.43;;
66093;SDS011;52876;49.394;10.892;2023-03-04T11:40:49;35.30;;;21.40;;
66093;SDS011;52876;49.394;10.892;2023-03-04T11:43:17;27.77;;;18.30;;
66093;SDS011;52876;49.394;10.892;2023-03-04T11:46:01;36.73;;;22.67;;
66093;SDS011;52876;49.394;10.892;2023-03-04T11:48:35;28.17;;;18.80;;
66093;SDS011;52876;49.394;10.892;2023-03-04T11:51:09;55.03;;;28.83;;
66093;SDS011;52876;49.394;10.892;2023-03-04T11:53:39;36.93;;;21.93;;
66093;SDS011;52876;49.394;10.892;2023-03-04T11:56:13;36.13;;;23.23;;
66093;SDS011;52876;49.394;10.892;2023-03-04T11:58:48;28.93;;;19.90;;
66093;SDS011;52876;49.394;10.892;2023-03-04T12:01:18;29.40;;;19.20;;
66093;SDS011;52876;49.394;10.892;2023-03-04T12:03:58;26.60;;;19.60;;
66093;SDS011;52876;49.394;10.892;2023-03-04T12:06:30;30.13;;;20.23;;
66093;SDS011;52876;49.394;10.892;2023-03-04T12:08:59;24.67;;;19.10;;
66093;SDS011;52876;49.394;10.892;2023-03-04T12:11:31;31.23;;;20.60;;
66093;SDS011;52876;49.394;10.892;2023-03-04T12:14:08;25.50;;;17.67;;
66093;SDS011;52876;49.394;10.892;2023-03-04T12:16:47;46.50;;;29.13;;
66093;SDS011;52876;49.394;10.892;2023-03-04T12:19:21;29.17;;;18.47;;
66093;SDS011;52876;49.394;10.892;2023-03-04T12:21:56;34.23;;;21.13;;
66093;SDS011;52876;49.394;10.892;2023-03-04T12:24:28;27.00;;;16.83;;
66093;SDS011;52876;49.394;10.892;2023-03-04T12:27:00;32.10;;;20.53;;
66093;SDS011;52876;49.394;10.892;2023-03-04T12:29:30;25.50;;;18.30;;
66093;SDS011;52876;49.394;10.892;2023-03-04T12:32:02;34.73;;;21.00;;
66093;SDS011;52876;49.394;10.892;2023-03-04T12:34:41;30.00;;;18.80;;
66093;SDS011;52876;49.394;10.892;2023-03-04T12:37:20;27.80;;;18.40;;
66093;SDS011;52876;49.394;10.892;2023-03-04T12:39:51;31.07;;;21.97;;
66093;SDS011;52876;49.394;10.892;2023-03-04T12:42:20;26.60;;;18.63;;
66093;SDS011;52876;49.394;10.892;2023-03-04T12:44:52;24.27;;;18.30;;
66093;SDS011;52876;49.394;10.892;2023-03-04T12:47:26;27.90;;;19.47;;
66093;SDS011;52876;49.394;10.892;2023-03-04T12:49:59;26.47;;;19.00;;
66093;SDS011;52876;49.394;10.892;2023-03-04T12:52:36;26.27;;;18.13;;
66093;SDS011;52876;49.394;10.892;2023-03-04T12:55:07;27.90;;;19.90;;
66093;SDS011;52876;49.394;10.892;2023-03-04T12:57:36;23.00;;;16.80;;
66093;SDS011;52876;49.394;10.892;2023-03-04T13:00:06;26.53;;;20.27;;
66093;SDS011;52876;49.394;10.892;2023-03-04T13:02:41;25.77;;;15.97;;
66093;SDS011;52876;49.394;10.892;2023-03-04T13:05:21;23.77;;;17.00;;
66093;SDS011;52876;49.394;10.892;2023-03-04T13:07:51;24.60;;;17.17;;
66093;SDS011;52876;49.394;10.892;2023-03-04T13:10:19;22.97;;;17.00;;
66093;SDS011;52876;49.394;10.892;2023-03-04T13:12:48;27.57;;;18.60;;
66093;SDS011;52876;49.394;10.892;2023-03-04T13:17:59;27.90;;;18.80;;
66093;SDS011;52876;49.394;10.892;2023-03-04T13:20:33;20.37;;;15.97;;
66093;SDS011;52876;49.394;10.892;2023-03-04T13:22:59;24.37;;;15.83;;
66093;SDS011;52876;49.394;10.892;2023-03-04T13:25:33;22.20;;;15.30;;
66093;SDS011;52876;49.394;10.892;2023-03-04T13:28:04;19.63;;;14.30;;
66093;SDS011;52876;49.394;10.892;2023-03-04T13:30:40;19.83;;;14.20;;
66093;SDS011;52876;49.394;10.892;2023-03-04T13:36:04;24.07;;;14.60;;
66093;SDS011;52876;49.394;10.892;2023-03-04T13:38:31;22.10;;;15.03;;
66093;SDS011;52876;49.394;10.892;2023-03-04T13:41:06;22.93;;;15.77;;
66093;SDS011;52876;49.394;10.892;2023-03-04T13:43:35;23.93;;;16.70;;
66093;SDS011;52876;49.394;10.892;2023-03-04T13:48:43;22.77;;;15.40;;
66093;SDS011;52876;49.394;10.892;2023-03-04T13:51:14;22.77;;;15.57;;
66093;SDS011;52876;49.394;10.892;2023-03-04T13:53:42;19.30;;;13.83;;
66093;SDS011;52876;49.394;10.892;2023-03-04T13:56:19;22.20;;;15.90;;
66093;SDS011;52876;49.394;10.892;2023-03-04T13:58:46;20.60;;;14.07;;
66093;SDS011;52876;49.394;10.892;2023-03-04T14:01:19;23.07;;;16.03;;
66093;SDS011;52876;49.394;10.892;2023-03-04T14:03:46;24.60;;;15.53;;
66093;SDS011;52876;49.394;10.892;2023-03-04T14:06:18;27.00;;;16.60;;
66093;SDS011;52876;49.394;10.892;2023-03-04T14:08:45;26.23;;;16.17;;
66093;SDS011;52876;49.394;10.892;2023-03-04T14:11:12;22.90;;;16.33;;
66093;SDS011;52876;49.394;10.892;2023-03-04T14:13:38;21.50;;;14.57;;
66093;SDS011;52876;49.394;10.892;2023-03-04T14:16:04;22.70;;;14.90;;
66093;SDS011;52876;49.394;10.892;2023-03-04T14:18:56;22.60;;;16.67;;
66093;SDS011;52876;49.394;10.892;2023-03-04T14:21:44;21.67;;;15.87;;
66093;SDS011;52876;49.394;10.892;2023-03-04T14:24:29;20.87;;;14.17;;
66093;SDS011;52876;49.394;10.892;2023-03-04T14:27:09;23.90;;;15.83;;